Terminal Aerodrome Forecast
Issued by NWS

Home | Current Version | Previous Version | Text Only | Print | Product List | Glossary On
Versions: 1 2 3 4 5 6 7 8 9 10 11 12 13
000
FTUS45 KABQ 240533
TAFTCC
TAF
KTCC 240533Z 2406/2506 VRB06KT P6SM FEW130
     FM241330 03016G26KT P6SM SKC
     FM242100 05022G31KT P6SM SCT035
     FM250100 05024G34KT P6SM BKN030
     FM250400 05025G34KT P6SM OVC025=

USA.gov is the U.S. government's official web portal to all federal, state and local government web resources and services.